M I D A S
Marine Information and Data Acquisition System
Tripno 934 of the Zeeleeuw from 2005-08-24 05:00:00 to 2005-08-24 13:30:53
Back to CruiseResearch ActivitiesStationsMapUnderway DataData graphs

EquipmentUnitsComment
TimeDGPSUTC
LatitudeDGPSDM.mWGS84
LongitudeDGPSDM.mWGS84
HeadingGyrodeg 
SOGDGPSknotsSpeed over ground
COGDGPSdegCourse over ground
DepthEcho soundermeters200 kHz
Missing or incorrect values are displayed as -999
Navigation data collected by the RV Zeeleeuw from 2005-08-24 05:00:00 to 2005-08-24 13:34:21
                                                                                    Next 1000 lines
Time Latitude Longitude Heading SOG COG Depth
2005-08-24 05:52:30 51°13.599 2°56.097 124.4 -999 -999 -999
2005-08-24 05:52:35 51°13.599 2°56.097 124.4 -999 -999 -999
2005-08-24 05:52:40 51°13.599 2°56.097 124.4 -999 -999 -999
2005-08-24 05:52:44 51°13.599 2°56.097 124.4 -999 -999 -999
2005-08-24 05:52:49 51°13.599 2°56.097 124.4 -999 -999 -999
2005-08-24 05:52:54 51°13.599 2°56.097 124.4 -999 -999 -999
2005-08-24 05:52:59 51°13.599 2°56.097 124.4 -999 -999 -999
2005-08-24 05:53:04 51°13.599 2°56.097 124.4 -999 -999 -999
2005-08-24 05:53:07 51°13.599 2°56.097 124.4 -999 -999 -999
2005-08-24 05:53:12 51°13.599 2°56.097 124.4 -999 -999 -999
2005-08-24 05:53:17 51°13.599 2°56.097 124.4 -999 -999 -999
2005-08-24 05:53:25 51°13.599 2°56.096 124.4 -999 123 -999
2005-08-24 05:53:30 51°13.598 2°56.104 124.4 -999 22 -999
2005-08-24 05:53:35 51°13.597 2°56.105 124.4 0.1 86 -999
2005-08-24 05:53:40 51°13.597 2°56.104 124.4 -999 238 -999
2005-08-24 05:53:44 51°13.596 2°56.103 124.4 0.1 234 -999
2005-08-24 05:53:50 51°13.596 2°56.103 124.4 0.1 215 -999
2005-08-24 05:53:54 51°13.596 2°56.102 124.4 0.1 215 -999
2005-08-24 05:54:00 51°13.596 2°56.103 124.3 -999 208 -999
2005-08-24 05:54:05 51°13.596 2°56.102 124.3 -999 36 -999
2005-08-24 05:54:09 51°13.595 2°56.102 124.3 -999 40 -999
2005-08-24 05:54:14 51°13.595 2°56.1 124.3 -999 14 -999
2005-08-24 05:54:20 51°13.595 2°56.1 124.3 -999 17 -999
2005-08-24 05:54:25 51°13.595 2°56.1 124.3 -999 241 -999
2005-08-24 05:54:30 51°13.595 2°56.099 124.3 -999 168 -999
2005-08-24 05:54:34 51°13.596 2°56.099 124.3 -999 189 -999
2005-08-24 05:54:40 51°13.596 2°56.099 124.3 -999 213 -999
2005-08-24 05:54:45 51°13.596 2°56.099 124.3 -999 253 -999
2005-08-24 05:54:49 51°13.597 2°56.099 124.3 -999 220 -999
2005-08-24 05:54:54 51°13.597 2°56.099 124.3 -999 160 -999
2005-08-24 05:54:59 51°13.597 2°56.099 124.3 -999 205 -999
2005-08-24 05:55:05 51°13.597 2°56.099 124.3 -999 225 -999
2005-08-24 05:55:10 51°13.597 2°56.099 124.3 -999 212 -999
2005-08-24 05:55:14 51°13.597 2°56.099 124.3 -999 193 -999
2005-08-24 05:55:20 51°13.597 2°56.099 124.3 -999 243 -999
2005-08-24 05:55:25 51°13.597 2°56.099 124.3 -999 291 -999
2005-08-24 05:55:30 51°13.597 2°56.099 124.3 -999 18 -999
2005-08-24 05:55:34 51°13.597 2°56.099 124.3 -999 15 -999
2005-08-24 05:55:40 51°13.597 2°56.099 124.3 -999 35 -999
2005-08-24 05:55:45 51°13.597 2°56.099 124.3 -999 153 -999
2005-08-24 05:55:50 51°13.597 2°56.099 124.3 -999 184 -999
2005-08-24 05:55:55 51°13.597 2°56.099 124.3 -999 16 -999
2005-08-24 05:56:00 51°13.597 2°56.099 124.3 -999 16 -999
2005-08-24 05:56:05 51°13.597 2°56.099 124.3 -999 33 -999
2005-08-24 05:56:10 51°13.597 2°56.099 124.3 -999 49 -999
2005-08-24 05:56:14 51°13.597 2°56.099 124.3 -999 351 -999
2005-08-24 05:56:20 51°13.597 2°56.099 124.3 -999 36 -999
2005-08-24 05:56:25 51°13.597 2°56.099 124.3 -999 36 -999
2005-08-24 05:56:29 51°13.597 2°56.099 124.3 -999 216 -999
2005-08-24 05:56:35 51°13.597 2°56.099 124.3 -999 38 -999
2005-08-24 05:56:40 51°13.597 2°56.099 124.3 -999 38 -999
2005-08-24 05:56:45 51°13.597 2°56.099 124.3 -999 49 -999
2005-08-24 05:56:50 51°13.597 2°56.099 124.3 -999 15 -999
2005-08-24 05:56:54 51°13.597 2°56.099 124.3 -999 47 -999
2005-08-24 05:57:00 51°13.597 2°56.099 124.3 -999 198 -999
2005-08-24 05:57:05 51°13.597 2°56.099 124.3 -999 202 -999
2005-08-24 05:57:10 51°13.597 2°56.099 124.3 -999 79 -999
2005-08-24 05:57:14 51°13.597 2°56.099 124.3 -999 10 -999
2005-08-24 05:57:20 51°13.597 2°56.099 124.3 -999 10 -999
2005-08-24 05:57:25 51°13.597 2°56.099 124.3 -999 217 -999
2005-08-24 05:57:30 51°13.597 2°56.099 124.3 -999 37 -999
2005-08-24 05:57:34 51°13.597 2°56.099 124.3 -999 136 -999
2005-08-24 05:57:39 51°13.597 2°56.099 124.3 -999 179 -999
2005-08-24 05:57:45 51°13.597 2°56.099 124.3 -999 184 -999
2005-08-24 05:57:50 51°13.597 2°56.099 124.3 -999 19 -999
2005-08-24 05:57:55 51°13.597 2°56.099 124.3 -999 352 -999
2005-08-24 05:58:00 51°13.597 2°56.099 124.3 -999 155 -999
2005-08-24 05:58:04 51°13.597 2°56.099 124.3 -999 232 -999
2005-08-24 05:58:10 51°13.597 2°56.099 124.3 -999 155 -999
2005-08-24 05:58:15 51°13.597 2°56.099 124.2 0.1 37 -999
2005-08-24 05:58:20 51°13.597 2°56.098 124.2 -999 112 -999
2005-08-24 05:58:25 51°13.597 2°56.098 124.2 0.1 146 -999
2005-08-24 05:58:30 51°13.597 2°56.098 124.2 0.1 146 -999
2005-08-24 05:58:35 51°13.597 2°56.098 124.2 -999 185 -999
2005-08-24 05:58:40 51°13.597 2°56.098 124.2 -999 186 -999
2005-08-24 05:58:45 51°13.597 2°56.098 124.2 -999 213 -999
2005-08-24 05:58:50 51°13.598 2°56.098 124.2 -999 213 -999
2005-08-24 05:58:54 51°13.598 2°56.098 124.2 -999 47 -999
2005-08-24 05:59:00 51°13.598 2°56.098 124.2 -999 176 -999
2005-08-24 05:59:05 51°13.598 2°56.098 124.2 -999 243 -999
2005-08-24 05:59:10 51°13.598 2°56.098 124.2 -999 243 -999
2005-08-24 05:59:15 51°13.598 2°56.098 124.2 -999 188 -999
2005-08-24 05:59:19 51°13.598 2°56.099 124.2 0.1 91 -999
2005-08-24 05:59:24 51°13.599 2°56.099 124.2 0.1 93 -999
2005-08-24 05:59:30 51°13.599 2°56.098 124.2 -999 103 -999
2005-08-24 05:59:34 51°13.599 2°56.098 124.2 -999 88 -999
2005-08-24 05:59:39 51°13.599 2°56.099 124.2 -999 80 -999
2005-08-24 05:59:44 51°13.599 2°56.099 124.2 0.1 89 -999
2005-08-24 05:59:50 51°13.599 2°56.098 124.2 -999 164 -999
2005-08-24 05:59:54 51°13.599 2°56.098 124.2 -999 164 -999
2005-08-24 05:59:59 51°13.599 2°56.098 124.2 -999 66 -999
2005-08-24 06:00:04 51°13.599 2°56.098 124.2 -999 77 -999
2005-08-24 06:00:10 51°13.599 2°56.098 124.2 -999 93 -999
2005-08-24 06:00:14 51°13.599 2°56.098 124.2 -999 136 -999
2005-08-24 06:00:19 51°13.599 2°56.098 124.2 -999 313 -999
2005-08-24 06:00:24 51°13.599 2°56.098 124.2 -999 27 -999
2005-08-24 06:00:30 51°13.599 2°56.098 124.2 -999 202 -999
2005-08-24 06:00:34 51°13.599 2°56.098 124.2 -999 40 -999
2005-08-24 06:00:39 51°13.599 2°56.098 124.2 -999 88 -999
2005-08-24 06:00:44 51°13.599 2°56.098 124.2 -999 223 -999
2005-08-24 06:00:50 51°13.599 2°56.098 124.2 -999 223 -999
2005-08-24 06:00:54 51°13.599 2°56.098 124.2 -999 20 -999
2005-08-24 06:00:59 51°13.599 2°56.098 124.2 -999 45 -999
2005-08-24 06:01:04 51°13.599 2°56.098 124.1 -999 45 -999
2005-08-24 06:01:10 51°13.599 2°56.097 124.1 -999 190 -999
2005-08-24 06:01:14 51°13.599 2°56.098 124.1 -999 217 -999
2005-08-24 06:01:19 51°13.599 2°56.098 124.1 -999 183 -999
2005-08-24 06:01:24 51°13.599 2°56.098 124.1 -999 186 -999
2005-08-24 06:01:30 51°13.599 2°56.098 124.1 -999 162 -999
2005-08-24 06:01:34 51°13.599 2°56.098 124.1 -999 246 -999
2005-08-24 06:01:39 51°13.599 2°56.098 124.1 -999 163 -999
2005-08-24 06:01:45 51°13.599 2°56.098 124.1 -999 318 -999
2005-08-24 06:01:50 51°13.599 2°56.097 124.1 -999 27 -999
2005-08-24 06:01:54 51°13.598 2°56.097 124.1 -999 47 -999
2005-08-24 06:01:59 51°13.598 2°56.097 124.1 -999 63 -999
2005-08-24 06:02:04 51°13.598 2°56.097 124.1 -999 126 -999
2005-08-24 06:02:10 51°13.598 2°56.097 124.1 -999 216 -999
2005-08-24 06:02:14 51°13.598 2°56.097 124.1 0.1 86 -999
2005-08-24 06:02:19 51°13.598 2°56.097 124.1 -999 67 -999
2005-08-24 06:02:24 51°13.598 2°56.097 124.1 -999 332 -999
2005-08-24 06:02:30 51°13.598 2°56.097 124.1 -999 17 -999
2005-08-24 06:02:34 51°13.598 2°56.097 124.1 -999 124 -999
2005-08-24 06:02:39 51°13.598 2°56.097 124.1 -999 33 -999
2005-08-24 06:02:44 51°13.598 2°56.097 124.1 -999 29 -999
2005-08-24 06:02:50 51°13.598 2°56.097 124.1 -999 187 -999
2005-08-24 06:02:54 51°13.598 2°56.096 124.1 -999 256 -999
2005-08-24 06:02:59 51°13.598 2°56.097 124.2 0.1 275 -999
2005-08-24 06:03:04 51°13.598 2°56.097 124.3 0.1 275 -999
2005-08-24 06:03:10 51°13.598 2°56.097 124.3 0.1 146 -999
2005-08-24 06:03:14 51°13.598 2°56.097 124.3 -999 148 -999
2005-08-24 06:03:20 51°13.598 2°56.097 124.3 -999 148 -999
2005-08-24 06:03:24 51°13.598 2°56.097 124.3 -999 107 -999
2005-08-24 06:03:30 51°13.598 2°56.097 124.3 -999 107 -999
2005-08-24 06:03:34 51°13.598 2°56.097 124.3 0.1 237 -999
2005-08-24 06:03:39 51°13.598 2°56.097 124.3 0.1 237 -999
2005-08-24 06:03:44 51°13.598 2°56.097 124.3 0.1 221 -999
2005-08-24 06:03:50 51°13.598 2°56.097 124.3 -999 162 -999
2005-08-24 06:03:54 51°13.598 2°56.097 124.3 -999 200 -999
2005-08-24 06:03:59 51°13.598 2°56.097 124.3 -999 272 -999
2005-08-24 06:04:04 51°13.598 2°56.097 124.3 0.1 196 -999
2005-08-24 06:04:09 51°13.598 2°56.097 124.3 0.1 196 -999
2005-08-24 06:04:17 51°13.598 2°56.096 124.3 -999 272 -999
2005-08-24 06:04:21 51°13.598 2°56.096 124.3 -999 90 -999
2005-08-24 06:04:26 51°13.598 2°56.096 124.3 0.1 134 -999
2005-08-24 06:04:31 51°13.598 2°56.096 124.3 0.1 272 -999
2005-08-24 06:04:36 51°13.598 2°56.095 124.3 0.1 263 -999
2005-08-24 06:04:40 51°13.598 2°56.096 124.3 -999 342 -999
2005-08-24 06:04:45 51°13.598 2°56.096 124.4 0.1 307 7.9
2005-08-24 06:04:49 51°13.599 2°56.096 124.4 -999 291 7.9
2005-08-24 06:04:54 51°13.599 2°56.096 124.4 -999 53 7.9
2005-08-24 06:04:59 51°13.599 2°56.096 124.4 -999 61 -999
2005-08-24 06:05:03 51°13.599 2°56.096 124.4 -999 144 7.9
2005-08-24 06:05:09 51°13.599 2°56.096 124.4 -999 318 5.8
2005-08-24 06:05:14 51°13.599 2°56.096 124.4 -999 318 7.9
2005-08-24 06:05:19 51°13.599 2°56.096 124.4 0.1 1 7.9
2005-08-24 06:05:24 51°13.599 2°56.096 124.4 0.1 8 7.8
2005-08-24 06:05:29 51°13.599 2°56.096 124.4 0.1 354 7.8
2005-08-24 06:05:34 51°13.599 2°56.096 124.4 0.2 350 7.9
2005-08-24 06:05:39 51°13.598 2°56.097 124.4 0.2 359 7.9
2005-08-24 06:05:42 51°13.598 2°56.097 124.4 0.2 359 7.9
2005-08-24 06:05:49 51°13.597 2°56.097 124.4 0.1 158 7.9
2005-08-24 06:05:54 51°13.597 2°56.096 124.4 0.1 165 7.9
2005-08-24 06:05:59 51°13.597 2°56.096 124.4 -999 245 7.9
2005-08-24 06:06:04 51°13.597 2°56.096 124.4 0.1 121 7.9
2005-08-24 06:06:09 51°13.597 2°56.096 124.4 0.1 146 7.9
2005-08-24 06:06:14 51°13.597 2°56.096 124.4 0.1 146 7.9
2005-08-24 06:06:19 51°13.597 2°56.096 124.3 -999 162 7.9
2005-08-24 06:06:23 51°13.597 2°56.097 124.3 -999 162 5.8
2005-08-24 06:06:29 51°13.597 2°56.097 124.3 0.1 148 7.8
2005-08-24 06:06:34 51°13.597 2°56.097 124.3 0.1 148 7.9
2005-08-24 06:06:38 51°13.597 2°56.097 124.4 0.1 105 7.9
2005-08-24 06:06:43 51°13.597 2°56.096 124.4 -999 200 7.9
2005-08-24 06:06:49 51°13.597 2°56.097 124.4 -999 323 7.9
2005-08-24 06:06:54 51°13.597 2°56.097 124.4 -999 323 7.9
2005-08-24 06:06:59 51°13.597 2°56.096 124.4 -999 323 5.7
2005-08-24 06:07:03 51°13.597 2°56.097 124.4 -999 179 7.9
2005-08-24 06:07:09 51°13.597 2°56.097 124.4 -999 85 7.9
2005-08-24 06:07:14 51°13.597 2°56.096 124.4 -999 85 7.9
2005-08-24 06:07:18 51°13.597 2°56.097 124.4 -999 85 7.8
2005-08-24 06:07:24 51°13.597 2°56.096 124.4 -999 85 5.8
2005-08-24 06:07:29 51°13.597 2°56.096 124.4 -999 241 7.8
2005-08-24 06:07:34 51°13.597 2°56.097 124.4 -999 241 -999
2005-08-24 06:07:39 51°13.597 2°56.097 124.4 0.1 127 7.8
2005-08-24 06:07:42 51°13.597 2°56.097 124.5 0.1 127 7.8
2005-08-24 06:07:49 51°13.597 2°56.097 124.5 -999 170 7.8
2005-08-24 06:07:54 51°13.597 2°56.097 124.5 0.1 107 7.8
2005-08-24 06:07:59 51°13.597 2°56.096 124.4 0.1 101 5.7
2005-08-24 06:08:04 51°13.597 2°56.097 124.4 0.1 101 7.8
2005-08-24 06:08:09 51°13.597 2°56.097 124.4 0.1 151 7.8
2005-08-24 06:08:14 51°13.597 2°56.097 124.5 -999 142 7.8
2005-08-24 06:08:19 51°13.597 2°56.097 124.6 0.1 129 -999
2005-08-24 06:08:22 51°13.597 2°56.097 124.8 0.1 129 7.8
2005-08-24 06:08:30 51°13.597 2°56.096 124.9 0.1 295 7.8
2005-08-24 06:08:34 51°13.597 2°56.096 124.9 0.1 295 7.8
2005-08-24 06:08:39 51°13.596 2°56.096 124.9 -999 309 7.8
2005-08-24 06:08:43 51°13.596 2°56.097 124.9 -999 181 7.8
2005-08-24 06:08:49 51°13.596 2°56.096 124.8 -999 157 7.7
2005-08-24 06:08:54 51°13.596 2°56.097 124.7 -999 157 5.7
2005-08-24 06:08:59 51°13.596 2°56.097 124.7 0.1 125 7.7
2005-08-24 06:09:04 51°13.596 2°56.096 124.7 0.1 125 7.8
2005-08-24 06:09:10 51°13.596 2°56.096 124.7 0.1 299 7.7
2005-08-24 06:09:14 51°13.596 2°56.096 124.7 0.1 333 7.8
2005-08-24 06:09:19 51°13.596 2°56.097 124.7 0.1 305 7.8
2005-08-24 06:09:24 51°13.596 2°56.097 124.8 0.1 305 5.7
2005-08-24 06:09:29 51°13.596 2°56.097 124.8 0.1 131 7.8
2005-08-24 06:09:34 51°13.596 2°56.096 124.8 -999 14 7.8
2005-08-24 06:09:39 51°13.596 2°56.097 124.8 -999 265 7.8
2005-08-24 06:09:43 51°13.596 2°56.097 124.8 -999 265 7.8
2005-08-24 06:09:49 51°13.597 2°56.097 124.7 -999 88 5.7
2005-08-24 06:09:54 51°13.597 2°56.096 124.6 -999 62 7.7
2005-08-24 06:09:58 51°13.597 2°56.096 124.3 0.1 304 7.7
2005-08-24 06:10:04 51°13.597 2°56.097 124.2 0.1 289 7.8
2005-08-24 06:10:09 51°13.597 2°56.096 124.1 0.1 289 7.8
2005-08-24 06:10:14 51°13.597 2°56.097 124.1 0.1 305 7.7
2005-08-24 06:10:19 51°13.596 2°56.097 124.1 -999 203 7.7
2005-08-24 06:10:24 51°13.597 2°56.097 124.1 -999 203 -999
2005-08-24 06:10:29 51°13.597 2°56.097 124.1 -999 153 7.8
2005-08-24 06:10:34 51°13.597 2°56.097 124.1 0.1 158 7.8
2005-08-24 06:10:39 51°13.597 2°56.097 124.1 0.1 158 5.7
2005-08-24 06:10:43 51°13.597 2°56.097 124.1 -999 307 7.7
2005-08-24 06:10:49 51°13.597 2°56.096 124.1 -999 189 5.7
2005-08-24 06:10:54 51°13.597 2°56.096 124.1 -999 267 7.7
2005-08-24 06:10:58 51°13.597 2°56.096 124.1 -999 267 5.7
2005-08-24 06:11:03 51°13.597 2°56.096 124.1 0.1 128 7.7
2005-08-24 06:11:09 51°13.597 2°56.096 124.1 0.1 134 7.7
2005-08-24 06:11:14 51°13.597 2°56.096 124.1 0.1 304 7.7
2005-08-24 06:11:18 51°13.597 2°56.096 124.1 0.1 292 7.7
2005-08-24 06:11:23 51°13.597 2°56.096 124.1 0.1 292 5.7
2005-08-24 06:11:29 51°13.597 2°56.096 124 -999 12 7.7
2005-08-24 06:11:34 51°13.597 2°56.096 124 -999 68 7.7
2005-08-24 06:11:39 51°13.597 2°56.096 124 -999 169 7.8
2005-08-24 06:11:42 51°13.597 2°56.096 124 -999 169 7.7
2005-08-24 06:11:50 51°13.597 2°56.096 124 -999 164 -999
2005-08-24 06:11:54 51°13.597 2°56.096 124.1 -999 164 7.9
2005-08-24 06:11:59 51°13.597 2°56.096 124.1 -999 141 7.7
2005-08-24 06:12:04 51°13.597 2°56.096 124.2 0.1 143 7.7
2005-08-24 06:12:09 51°13.598 2°56.096 124.2 0.1 155 7.7
2005-08-24 06:12:14 51°13.598 2°56.096 124.2 -999 164 7.7
2005-08-24 06:12:19 51°13.598 2°56.096 124.2 -999 329 7.7
2005-08-24 06:12:22 51°13.597 2°56.096 124.2 -999 329 7.7
2005-08-24 06:12:29 51°13.597 2°56.097 124.2 0.1 157 -999
2005-08-24 06:12:34 51°13.597 2°56.097 124.2 0.1 157 7.7
2005-08-24 06:12:39 51°13.597 2°56.097 124.2 0.1 125 7.7
2005-08-24 06:12:44 51°13.597 2°56.096 124.1 0.1 125 7.7
2005-08-24 06:12:49 51°13.597 2°56.096 124.1 0.1 324 7.7
2005-08-24 06:12:54 51°13.597 2°56.097 124.1 0.1 147 5.7
2005-08-24 06:12:59 51°13.597 2°56.096 124.1 -999 139 7.7
2005-08-24 06:13:04 51°13.598 2°56.097 124.2 -999 147 7.7
2005-08-24 06:13:09 51°13.597 2°56.097 124.3 -999 153 7.7
2005-08-24 06:13:14 51°13.597 2°56.097 124.5 -999 153 7.7
2005-08-24 06:13:19 51°13.598 2°56.096 124.6 0.1 125 7.7
2005-08-24 06:13:24 51°13.598 2°56.096 124.6 -999 350 7.7
2005-08-24 06:13:29 51°13.598 2°56.096 124.6 0.1 314 5.7
2005-08-24 06:13:34 51°13.598 2°56.096 124.6 0.1 289 7.7
2005-08-24 06:13:39 51°13.598 2°56.096 124.6 0.1 289 7.7
2005-08-24 06:13:44 51°13.598 2°56.096 124.6 -999 227 7.7
2005-08-24 06:13:50 51°13.598 2°56.096 124.6 -999 314 7.7
2005-08-24 06:13:54 51°13.598 2°56.097 124.5 -999 212 7.7
2005-08-24 06:13:58 51°13.598 2°56.097 124.4 -999 188 7.7
2005-08-24 06:14:03 51°13.598 2°56.096 124.3 -999 188 7.7
2005-08-24 06:14:09 51°13.598 2°56.096 124.3 0.1 321 7.7
2005-08-24 06:14:14 51°13.598 2°56.096 124.3 -999 328 7.7
2005-08-24 06:14:18 51°13.598 2°56.097 124.4 0.1 145 7.8
2005-08-24 06:14:23 51°13.599 2°56.096 124.6 0.1 145 -999
2005-08-24 06:14:29 51°13.598 2°56.096 124.6 -999 249 7.7
2005-08-24 06:14:34 51°13.598 2°56.096 124.6 -999 146 7.7
2005-08-24 06:14:39 51°13.598 2°56.096 124.6 -999 324 7.7
2005-08-24 06:14:42 51°13.598 2°56.096 124.6 -999 267 7.7
2005-08-24 06:14:49 51°13.598 2°56.096 124.6 -999 267 7.7
2005-08-24 06:14:54 51°13.598 2°56.096 124.6 -999 148 7.7
2005-08-24 06:14:59 51°13.598 2°56.096 124.6 0.1 114 7.7
2005-08-24 06:15:03 51°13.598 2°56.096 124.5 -999 100 7.7
2005-08-24 06:15:09 51°13.598 2°56.096 124.4 0.1 142 7.7
2005-08-24 06:15:14 51°13.598 2°56.096 124.3 0.1 142 7.7
2005-08-24 06:15:19 51°13.598 2°56.097 124.3 0.1 158 7.6
2005-08-24 06:15:23 51°13.598 2°56.097 124.3 0.1 138 5.7
2005-08-24 06:15:29 51°13.598 2°56.097 124.3 0.1 123 7.7
2005-08-24 06:15:34 51°13.598 2°56.096 124.3 0.1 123 7.7
2005-08-24 06:15:39 51°13.598 2°56.096 124.4 0.1 123 7.7
2005-08-24 06:15:45 51°13.598 2°56.096 124.4 0.1 95 7.7
2005-08-24 06:15:49 51°13.598 2°56.096 124.4 0.1 95 7.7
2005-08-24 06:15:54 51°13.598 2°56.096 124.4 0.1 95 7.7
2005-08-24 06:15:59 51°13.598 2°56.096 124.5 0.1 124 5.7
2005-08-24 06:16:04 51°13.597 2°56.096 124.6 0.1 124 7.6
2005-08-24 06:16:09 51°13.597 2°56.096 124.6 0.1 147 7.6
2005-08-24 06:16:14 51°13.597 2°56.096 124.6 -999 235 7.7
2005-08-24 06:16:19 51°13.597 2°56.096 124.6 -999 118 7.7
2005-08-24 06:16:24 51°13.597 2°56.096 124.6 0.1 129 5.7
2005-08-24 06:16:29 51°13.597 2°56.096 124.6 0.1 129 7.7
2005-08-24 06:16:34 51°13.597 2°56.097 124.6 0.1 129 7.7
2005-08-24 06:16:39 51°13.597 2°56.096 124.6 0.1 129 7.6
2005-08-24 06:16:43 51°13.597 2°56.096 124.6 0.1 301 7.6
2005-08-24 06:16:49 51°13.597 2°56.097 124.6 -999 241 7.7
2005-08-24 06:16:54 51°13.597 2°56.097 124.6 -999 309 7.6
2005-08-24 06:16:59 51°13.596 2°56.097 124.6 -999 205 7.6
2005-08-24 06:17:03 51°13.596 2°56.098 124.6 0.1 143 7.6
2005-08-24 06:17:09 51°13.596 2°56.098 124.8 0.1 128 7.6
2005-08-24 06:17:14 51°13.595 2°56.098 125 0.1 115 5.7
2005-08-24 06:17:19 51°13.595 2°56.098 125.2 0.1 161 7.6
2005-08-24 06:17:23 51°13.595 2°56.098 125.3 0.1 146 7.6
2005-08-24 06:17:29 51°13.595 2°56.098 125.3 0.1 168 7.6
2005-08-24 06:17:34 51°13.595 2°56.097 125.3 0.1 168 7.6
2005-08-24 06:17:39 51°13.595 2°56.097 125.3 -999 287 5.6
2005-08-24 06:17:43 51°13.595 2°56.097 125.3 -999 287 7.7
2005-08-24 06:17:49 51°13.595 2°56.097 125.1 0.1 300 7.6
2005-08-24 06:17:54 51°13.595 2°56.097 125 -999 289 7.6
2005-08-24 06:17:58 51°13.595 2°56.097 124.9 0.1 66 7.6
2005-08-24 06:18:04 51°13.596 2°56.097 124.8 0.1 66 7.7
2005-08-24 06:18:10 51°13.596 2°56.097 124.8 -999 121 7.6
2005-08-24 06:18:14 51°13.596 2°56.097 124.8 -999 121 5.6
2005-08-24 06:18:19 51°13.596 2°56.097 124.8 0.1 111 7.6
2005-08-24 06:18:22 51°13.596 2°56.097 124.8 0.1 111 7.6
2005-08-24 06:18:29 51°13.596 2°56.097 124.8 -999 157 7.6
2005-08-24 06:18:34 51°13.597 2°56.097 124.8 -999 157 7.6
2005-08-24 06:18:39 51°13.597 2°56.097 124.8 -999 314 5.6
2005-08-24 06:18:44 51°13.597 2°56.097 124.8 -999 314 7.6
2005-08-24 06:18:49 51°13.597 2°56.097 124.8 0.1 125 7.7
2005-08-24 06:18:54 51°13.597 2°56.097 124.8 0.1 128 7.6
2005-08-24 06:18:58 51°13.597 2°56.097 124.8 0.1 128 7.6
2005-08-24 06:19:03 51°13.597 2°56.097 124.8 -999 164 7.6
2005-08-24 06:19:09 51°13.597 2°56.097 124.8 0.1 152 7.6
2005-08-24 06:19:14 51°13.597 2°56.097 124.8 0.1 147 5.6
2005-08-24 06:19:19 51°13.597 2°56.097 124.8 0.1 119 7.5
2005-08-24 06:19:24 51°13.597 2°56.097 124.8 0.1 115 7.6
2005-08-24 06:19:29 51°13.597 2°56.097 124.8 -999 87 7.6
2005-08-24 06:19:34 51°13.597 2°56.097 124.8 -999 292 7.6
2005-08-24 06:19:39 51°13.597 2°56.097 124.9 -999 200 7.6
2005-08-24 06:19:43 51°13.597 2°56.097 125 0.1 136 7.5
2005-08-24 06:19:49 51°13.596 2°56.097 125 0.1 130 7.6
2005-08-24 06:19:54 51°13.596 2°56.097 125.1 0.1 140 7.6
2005-08-24 06:19:59 51°13.597 2°56.097 125.1 0.1 131 7.6
2005-08-24 06:20:02 51°13.597 2°56.097 125.2 -999 132 7.6
2005-08-24 06:20:09 51°13.597 2°56.097 125.2 -999 174 7.6
2005-08-24 06:20:14 51°13.597 2°56.098 125.3 0.1 147 5.6
2005-08-24 06:20:19 51°13.597 2°56.098 125.3 0.2 131 7.5
2005-08-24 06:20:22 51°13.597 2°56.098 125.3 0.2 130 7.6
2005-08-24 06:20:29 51°13.597 2°56.097 125.3 0.1 140 7.6
2005-08-24 06:20:34 51°13.597 2°56.097 125.2 0.1 140 7.6
2005-08-24 06:20:39 51°13.597 2°56.097 125.2 -999 171 5.7
2005-08-24 06:20:44 51°13.597 2°56.097 125.2 -999 171 7.5
2005-08-24 06:20:49 51°13.597 2°56.097 125.3 -999 171 7.6
2005-08-24 06:20:54 51°13.597 2°56.097 125.4 -999 171 7.6
2005-08-24 06:20:59 51°13.597 2°56.097 125.4 -999 285 5.6
2005-08-24 06:21:04 51°13.597 2°56.097 125.4 -999 242 7.6
2005-08-24 06:21:09 51°13.597 2°56.097 125.4 -999 120 7.6
2005-08-24 06:21:14 51°13.597 2°56.097 125.2 -999 19 7.6
2005-08-24 06:21:19 51°13.597 2°56.097 125.2 -999 32 7.5
2005-08-24 06:21:24 51°13.597 2°56.097 125.2 -999 32 7.5
2005-08-24 06:21:29 51°13.598 2°56.097 125.2 -999 121 7.5
2005-08-24 06:21:34 51°13.598 2°56.097 125.3 -999 268 7.5
2005-08-24 06:21:39 51°13.598 2°56.097 125.2 0.1 286 7.5
2005-08-24 06:21:43 51°13.598 2°56.097 125.1 -999 209 7.5
2005-08-24 06:21:49 51°13.598 2°56.097 125 -999 214 5.6
2005-08-24 06:21:54 51°13.598 2°56.096 124.8 -999 214 7.5
2005-08-24 06:21:59 51°13.598 2°56.097 124.7 -999 318 7.5
2005-08-24 06:22:02 51°13.598 2°56.097 124.6 -999 318 7.5
2005-08-24 06:22:09 51°13.598 2°56.096 124.6 -999 335 7.5
2005-08-24 06:22:14 51°13.598 2°56.096 124.5 -999 335 7.5
2005-08-24 06:22:19 51°13.598 2°56.096 124.5 -999 122 7.5
2005-08-24 06:22:24 51°13.598 2°56.096 124.5 -999 129 5.6
2005-08-24 06:22:30 51°13.598 2°56.096 124.5 -999 129 7.6
2005-08-24 06:22:34 51°13.598 2°56.097 124.5 -999 129 7.5
2005-08-24 06:22:39 51°13.599 2°56.096 124.5 0.1 133 7.5
2005-08-24 06:22:43 51°13.599 2°56.096 124.5 0.1 133 7.5
2005-08-24 06:22:49 51°13.599 2°56.096 124.7 -999 121 5.6
2005-08-24 06:22:54 51°13.599 2°56.096 124.8 -999 147 7.6
2005-08-24 06:22:59 51°13.599 2°56.097 124.8 -999 147 7.6
2005-08-24 06:23:03 51°13.598 2°56.096 124.8 -999 147 7.5
2005-08-24 06:23:10 51°13.597 2°56.096 124.8 -999 147 7.5
2005-08-24 06:23:14 51°13.597 2°56.096 124.8 0.1 209 7.5
2005-08-24 06:23:19 51°13.597 2°56.096 124.8 0.1 209 7.5
2005-08-24 06:23:23 51°13.597 2°56.095 124.7 0.1 209 7.5
2005-08-24 06:23:30 51°13.596 2°56.095 124.7 0.1 242 7.5
2005-08-24 06:23:34 51°13.596 2°56.096 124.7 0.1 233 7.5
2005-08-24 06:23:39 51°13.597 2°56.096 124.7 0.1 233 7.5
2005-08-24 06:23:44 51°13.597 2°56.096 124.7 -999 102 7.5
2005-08-24 06:23:49 51°13.597 2°56.096 124.7 -999 102 5.6
2005-08-24 06:23:54 51°13.597 2°56.096 124.7 -999 102 7.5
2005-08-24 06:23:59 51°13.597 2°56.096 124.8 -999 102 7.6
2005-08-24 06:24:04 51°13.597 2°56.096 124.8 -999 102 7.5
2005-08-24 06:24:09 51°13.597 2°56.096 124.8 -999 127 7.5
2005-08-24 06:24:14 51°13.597 2°56.096 124.8 -999 127 5.6
2005-08-24 06:24:19 51°13.597 2°56.096 124.8 0.1 183 7.5
2005-08-24 06:24:23 51°13.597 2°56.097 124.8 0.1 185 7.5
2005-08-24 06:24:29 51°13.597 2°56.096 124.7 -999 61 7.5
2005-08-24 06:24:34 51°13.597 2°56.096 124.7 -999 38 7.5
2005-08-24 06:24:39 51°13.597 2°56.096 124.7 -999 38 5.6
2005-08-24 06:24:44 51°13.598 2°56.096 124.7 0.1 173 7.5
2005-08-24 06:24:49 51°13.598 2°56.096 124.7 0.1 173 7.5
2005-08-24 06:24:54 51°13.599 2°56.096 124.7 0.1 173 7.5
2005-08-24 06:24:59 51°13.599 2°56.096 124.7 -999 147 7.5
2005-08-24 06:25:03 51°13.6 2°56.097 124.7 -999 147 7.4
2005-08-24 06:25:09 51°13.601 2°56.097 124.7 -999 156 7.5
2005-08-24 06:25:14 51°13.601 2°56.097 124.7 0.1 131 7.5
2005-08-24 06:25:18 51°13.601 2°56.096 124.7 0.1 294 7.5
2005-08-24 06:25:24 51°13.599 2°56.096 124.7 0.1 294 7.5
2005-08-24 06:25:29 51°13.599 2°56.096 124.8 -999 245 7.4
2005-08-24 06:25:34 51°13.599 2°56.096 124.8 -999 245 5.6
2005-08-24 06:25:39 51°13.599 2°56.096 124.8 -999 297 7.6
2005-08-24 06:25:43 51°13.599 2°56.096 124.8 -999 236 7.5
2005-08-24 06:25:49 51°13.599 2°56.096 124.8 -999 236 7.6
2005-08-24 06:25:54 51°13.599 2°56.096 124.8 -999 60 7.5
2005-08-24 06:25:59 51°13.599 2°56.096 124.8 0.1 217 7.5
2005-08-24 06:26:03 51°13.6 2°56.096 124.8 0.1 257 7.5
2005-08-24 06:26:09 51°13.601 2°56.097 124.8 0.1 257 7.4
2005-08-24 06:26:14 51°13.602 2°56.097 124.8 -999 115 7.5
2005-08-24 06:26:19 51°13.601 2°56.096 124.8 -999 265 5.6
2005-08-24 06:26:23 51°13.601 2°56.096 124.8 -999 265 7.4
2005-08-24 06:26:29 51°13.6 2°56.097 124.8 -999 265 7.5
2005-08-24 06:26:34 51°13.6 2°56.096 124.8 0.1 57 7.5
2005-08-24 06:26:39 51°13.6 2°56.096 124.8 -999 266 7.5
2005-08-24 06:26:43 51°13.6 2°56.096 124.8 -999 266 7.5
2005-08-24 06:26:49 51°13.6 2°56.096 124.8 0.1 191 7.5
2005-08-24 06:26:54 51°13.6 2°56.096 124.8 0.1 191 5.6
2005-08-24 06:26:59 51°13.6 2°56.096 124.8 0.1 191 7.5
2005-08-24 06:27:03 51°13.6 2°56.096 124.8 0.1 191 7.5
2005-08-24 06:27:10 51°13.6 2°56.096 124.8 -999 327 7.5
2005-08-24 06:27:14 51°13.6 2°56.096 124.8 -999 277 7.5
2005-08-24 06:27:19 51°13.6 2°56.096 124.8 -999 219 -999
2005-08-24 06:27:23 51°13.6 2°56.096 124.8 0.1 157 7.4
2005-08-24 06:27:30 51°13.601 2°56.096 124.8 -999 260 7.4
2005-08-24 06:27:34 51°13.601 2°56.096 124.8 -999 260 7.4
2005-08-24 06:27:39 51°13.6 2°56.096 124.8 0.1 204 7.4
2005-08-24 06:27:44 51°13.6 2°56.096 124.8 0.1 204 5.5
2005-08-24 06:27:49 51°13.6 2°56.096 124.8 -999 124 7.4
2005-08-24 06:27:54 51°13.6 2°56.097 124.8 -999 124 7.4
2005-08-24 06:27:58 51°13.6 2°56.097 124.9 0.1 98 7.4
2005-08-24 06:28:03 51°13.6 2°56.097 124.9 0.1 112 7.4
2005-08-24 06:28:09 51°13.6 2°56.097 124.9 0.1 131 5.5
2005-08-24 06:28:14 51°13.599 2°56.097 125 0.1 131 7.4
2005-08-24 06:28:18 51°13.599 2°56.097 125 0.1 131 7.4
2005-08-24 06:28:23 51°13.599 2°56.096 125 0.1 131 7.4
2005-08-24 06:28:29 51°13.599 2°56.097 125 -999 174 7.4
2005-08-24 06:28:34 51°13.599 2°56.097 125 0.1 85 5.6
2005-08-24 06:28:39 51°13.599 2°56.097 125 -999 95 7.4
2005-08-24 06:28:44 51°13.599 2°56.096 125 -999 268 7.4
2005-08-24 06:28:49 51°13.599 2°56.097 125 0.1 149 7.4
2005-08-24 06:28:54 51°13.599 2°56.097 125.2 0.1 154 7.4
2005-08-24 06:28:59 51°13.599 2°56.097 125.5 0.1 163 5.6
2005-08-24 06:29:04 51°13.599 2°56.097 125.8 0.1 163 7.4
2005-08-24 06:29:09 51°13.6 2°56.097 126 0.1 163 7.5
2005-08-24 06:29:14 51°13.6 2°56.097 126 0.1 163 7.4
2005-08-24 06:29:19 51°13.599 2°56.097 126 0.1 142 7.4
2005-08-24 06:29:24 51°13.599 2°56.097 125.9 0.1 137 5.5
2005-08-24 06:29:29 51°13.599 2°56.097 125.8 0.1 144 7.4
2005-08-24 06:29:34 51°13.599 2°56.097 125.9 0.1 144 7.4
2005-08-24 06:29:39 51°13.599 2°56.097 125.9 -999 24 7.4
2005-08-24 06:29:44 51°13.598 2°56.096 126 -999 47 7.3
2005-08-24 06:29:49 51°13.598 2°56.096 126.2 0.1 227 7.3
2005-08-24 06:29:54 51°13.598 2°56.096 126.2 0.1 227 7.4
2005-08-24 06:29:59 51°13.597 2°56.096 126.2 0.1 227 5.5
2005-08-24 06:30:03 51°13.597 2°56.095 126.2 0.1 227 7.4
2005-08-24 06:30:09 51°13.596 2°56.095 126.2 -999 325 7.4
2005-08-24 06:30:14 51°13.596 2°56.095 126.3 -999 270 7.4
2005-08-24 06:30:19 51°13.596 2°56.095 126.5 -999 209 7.4
2005-08-24 06:30:23 51°13.596 2°56.095 126.5 0.1 96 7.4
2005-08-24 06:30:29 51°13.596 2°56.095 126.5 0.1 62 7.4
2005-08-24 06:30:34 51°13.596 2°56.094 126.5 0.1 62 5.5
2005-08-24 06:30:39 51°13.595 2°56.094 126.5 0.1 170 7.4
2005-08-24 06:30:44 51°13.595 2°56.095 126.5 0.1 128 7.4
2005-08-24 06:30:49 51°13.595 2°56.094 126.5 0.1 210 7.4
2005-08-24 06:30:54 51°13.595 2°56.094 126.5 0.1 210 7.4
2005-08-24 06:30:59 51°13.595 2°56.094 126.5 0.1 220 7.4
2005-08-24 06:31:03 51°13.595 2°56.094 126.5 0.1 220 7.4
2005-08-24 06:31:09 51°13.595 2°56.095 126.5 -999 149 7.4
2005-08-24 06:31:14 51°13.595 2°56.094 126.5 -999 109 7.4
2005-08-24 06:31:18 51°13.595 2°56.095 126.5 -999 282 7.4
2005-08-24 06:31:23 51°13.596 2°56.095 126.5 0.1 139 7.4
2005-08-24 06:31:29 51°13.596 2°56.095 126.5 -999 57 7.4
2005-08-24 06:31:34 51°13.596 2°56.095 125.7 0.1 196 7.4
2005-08-24 06:31:39 51°13.595 2°56.095 124.2 0.1 180 7.4
2005-08-24 06:31:44 51°13.595 2°56.095 122.5 0.1 223 7.4
2005-08-24 06:31:49 51°13.595 2°56.095 120.8 -999 56 7.4
2005-08-24 06:31:54 51°13.595 2°56.095 119 0.2 20 7.4
2005-08-24 06:31:58 51°13.594 2°56.094 117.2 0.1 257 7.4
2005-08-24 06:32:04 51°13.595 2°56.094 115.9 0.1 257 7.4
2005-08-24 06:32:09 51°13.595 2°56.091 114.9 0.8 287 7.5
2005-08-24 06:32:14 51°13.596 2°56.089 114.3 0.8 287 5.7
2005-08-24 06:32:19 51°13.597 2°56.085 114.2 1.6 294 8
2005-08-24 06:32:24 51°13.598 2°56.08 114.3 2.1 292 8.2
2005-08-24 06:32:30 51°13.6 2°56.073 115.2 2.7 293 -999
2005-08-24 06:32:34 51°13.602 2°56.067 116.1 3.4 294 -999
2005-08-24 06:32:40 51°13.604 2°56.058 116.8 3.6 295 -999
2005-08-24 06:32:45 51°13.607 2°56.05 116.9 3.8 294 -999
2005-08-24 06:32:50 51°13.609 2°56.043 116.9 4.1 294 -999
2005-08-24 06:32:54 51°13.611 2°56.036 117.2 4.3 294 -999
2005-08-24 06:33:00 51°13.614 2°56.024 117.8 4.5 294 -999
2005-08-24 06:33:03 51°13.616 2°56.018 118.4 4.7 294 -999
2005-08-24 06:33:10 51°13.62 2°56.005 119 4.8 295 -999
2005-08-24 06:33:15 51°13.623 2°55.996 119.6 4.8 295 -999
2005-08-24 06:33:20 51°13.627 2°55.986 120.4 5 296 -999
2005-08-24 06:33:25 51°13.63 2°55.975 121.3 5.1 297 -999
2005-08-24 06:33:30 51°13.634 2°55.965 122.3 5.2 298 -999
2005-08-24 06:33:35 51°13.637 2°55.955 123.1 5.3 298 -999
2005-08-24 06:33:39 51°13.641 2°55.946 123.5 5.3 298 -999
2005-08-24 06:33:44 51°13.644 2°55.936 123.8 5.3 301 -999
2005-08-24 06:33:50 51°13.649 2°55.924 123.8 5.3 300 -999
2005-08-24 06:33:54 51°13.652 2°55.917 123.3 5.3 301 -999
2005-08-24 06:34:00 51°13.656 2°55.905 122.5 5.2 300 -999
2005-08-24 06:34:05 51°13.659 2°55.896 121.1 5.1 299 -999
2005-08-24 06:34:10 51°13.662 2°55.885 119.8 5 298 -999
2005-08-24 06:34:15 51°13.665 2°55.877 118.1 4.8 299 -999
2005-08-24 06:34:19 51°13.667 2°55.869 116.1 4.6 297 -999
2005-08-24 06:34:24 51°13.669 2°55.861 114.3 4.5 294 -999
2005-08-24 06:34:30 51°13.672 2°55.851 112.9 4.4 291 -999
2005-08-24 06:34:34 51°13.673 2°55.843 111 4.1 291 -999
2005-08-24 06:34:38 51°13.675 2°55.836 109 4.1 288 -999
2005-08-24 06:34:43 51°13.676 2°55.828 107 4.1 288 -999
2005-08-24 06:34:50 51°13.678 2°55.818 105 3.8 285 -999
2005-08-24 06:34:54 51°13.679 2°55.812 102.8 3.7 284 -999
2005-08-24 06:34:59 51°13.68 2°55.803 101 3.7 284 -999
2005-08-24 06:35:03 51°13.681 2°55.797 99.6 3.6 280 -999
2005-08-24 06:35:10 51°13.682 2°55.787 97.9 3.6 280 10.6
2005-08-24 06:35:14 51°13.682 2°55.78 96.6 3.6 278 -999
2005-08-24 06:35:19 51°13.683 2°55.772 94.8 3.6 275 -999
2005-08-24 06:35:25 51°13.683 2°55.763 93.1 3.4 275 -999
2005-08-24 06:35:30 51°13.683 2°55.757 92 3.1 275 -999
2005-08-24 06:35:34 51°13.683 2°55.754 90.9 2.6 273 -999
2005-08-24 06:35:39 51°13.684 2°55.748 88.5 2.1 274 -999
2005-08-24 06:35:45 51°13.684 2°55.745 85.2 1.5 276 -999
2005-08-24 06:35:49 51°13.684 2°55.743 82.6 1.1 279 13
2005-08-24 06:35:54 51°13.685 2°55.743 79.2 0.8 291 13.2
2005-08-24 06:35:59 51°13.685 2°55.743 74.6 0.6 298 13.4
2005-08-24 06:36:03 51°13.686 2°55.743 70.2 0.6 298 13.5
2005-08-24 06:36:10 51°13.688 2°55.744 64 0.6 298 13.8
2005-08-24 06:36:14 51°13.689 2°55.746 57.3 0.6 298 13.9
2005-08-24 06:36:20 51°13.692 2°55.748 50.3 1.6 31 14
2005-08-24 06:36:22 51°13.693 2°55.749 41.8 1.9 29 14.2
2005-08-24 06:36:29 51°13.697 2°55.751 34.8 2.3 20 13.8
2005-08-24 06:36:34 51°13.701 2°55.752 27.8 2.3 20 13.9
2005-08-24 06:36:39 51°13.707 2°55.752 21.7 3.5 6 14.1
2005-08-24 06:36:44 51°13.713 2°55.751 12.6 3.5 6 13.8
2005-08-24 06:36:49 51°13.719 2°55.749 3.3 4.2 351 13.5
2005-08-24 06:36:54 51°13.725 2°55.744 353.7 4.2 351 12.6
2005-08-24 06:36:58 51°13.729 2°55.74 343.9 4.8 335 11.1
2005-08-24 06:37:04 51°13.736 2°55.734 336 4.8 335 10.6
2005-08-24 06:37:09 51°13.743 2°55.727 332.1 5 329 10
2005-08-24 06:37:14 51°13.748 2°55.72 329.8 5 329 10
2005-08-24 06:37:19 51°13.755 2°55.712 329.3 5 329 10
2005-08-24 06:37:23 51°13.761 2°55.705 328.7 6.1 324 9.9
2005-08-24 06:37:29 51°13.77 2°55.694 328.1 6.4 323 9.8
2005-08-24 06:37:34 51°13.777 2°55.686 328 6.4 323 9.9
2005-08-24 06:37:39 51°13.785 2°55.676 328.1 7.4 324 10.2
2005-08-24 06:37:44 51°13.796 2°55.666 328.9 7.7 326 10.3
2005-08-24 06:37:49 51°13.806 2°55.657 330.6 8 328 10.7
2005-08-24 06:37:54 51°13.815 2°55.65 333.1 8.2 329 10.9
2005-08-24 06:37:59 51°13.827 2°55.639 335.5 8.2 329 11
2005-08-24 06:38:04 51°13.837 2°55.631 336.7 8.8 332 11.1
2005-08-24 06:38:09 51°13.849 2°55.622 338 8.9 333 11
2005-08-24 06:38:14 51°13.861 2°55.612 338.3 9.1 333 10.7
2005-08-24 06:38:19 51°13.872 2°55.605 339 9.3 335 10.6
2005-08-24 06:38:24 51°13.884 2°55.595 339.2 9.4 334 10.6
2005-08-24 06:38:29 51°13.896 2°55.586 339 9.6 335 10.3
2005-08-24 06:38:34 51°13.907 2°55.577 339.1 9.6 335 10.5
2005-08-24 06:38:39 51°13.921 2°55.567 339.2 9.7 335 10.6
2005-08-24 06:38:42 51°13.927 2°55.563 339.8 9.8 335 10.7
2005-08-24 06:38:49 51°13.946 2°55.549 340.2 9.8 335 10.6
2005-08-24 06:38:54 51°13.957 2°55.541 339.5 9.8 334 10.6
2005-08-24 06:38:59 51°13.969 2°55.531 339.3 9.8 334 10.6
2005-08-24 06:39:03 51°13.98 2°55.523 339.3 9.8 334 10.6
2005-08-24 06:39:09 51°13.995 2°55.512 339.4 9.9 334 10.7
2005-08-24 06:39:14 51°14.007 2°55.503 339.4 9.9 334 10.6
2005-08-24 06:39:19 51°14.021 2°55.493 339.8 10.1 335 10.5
2005-08-24 06:39:24 51°14.034 2°55.484 339.8 10.1 335 10.5
2005-08-24 06:39:29 51°14.047 2°55.474 339.7 10.1 335 10.3
2005-08-24 06:39:34 51°14.058 2°55.466 339.7 10.1 335 10.3
2005-08-24 06:39:39 51°14.072 2°55.456 340.4 10.1 335 10.3
2005-08-24 06:39:44 51°14.086 2°55.445 340.4 10.3 335 10.3
2005-08-24 06:39:49 51°14.099 2°55.436 340.1 10.4 335 10
2005-08-24 06:39:54 51°14.111 2°55.426 339.5 10.6 334 10.2
2005-08-24 06:39:59 51°14.125 2°55.416 339.7 10.7 334 10.4
2005-08-24 06:40:03 51°14.137 2°55.407 340.4 10.7 334 10.4
2005-08-24 06:40:09 51°14.154 2°55.394 340 10.7 334 10.4
2005-08-24 06:40:14 51°14.166 2°55.382 338.4 11.2 332 10.5
2005-08-24 06:40:19 51°14.18 2°55.368 336 11.2 330 10.9
2005-08-24 06:40:24 51°14.193 2°55.353 333 11.2 330 10.5
2005-08-24 06:40:29 51°14.206 2°55.337 330 11.2 330 10.5
2005-08-24 06:40:34 51°14.217 2°55.323 327.6 11.2 330 10.4
2005-08-24 06:40:39 51°14.229 2°55.306 326.1 11.5 320 10.5
2005-08-24 06:40:44 51°14.242 2°55.288 325 11.5 320 10.5
2005-08-24 06:40:49 51°14.253 2°55.27 323.4 11.5 318 10.5
2005-08-24 06:40:54 51°14.265 2°55.252 321.5 11.5 316 10.5
2005-08-24 06:40:58 51°14.273 2°55.237 319.1 11.6 313 10.4
2005-08-24 06:41:03 51°14.284 2°55.217 317.9 11.7 312 10.5
2005-08-24 06:41:09 51°14.297 2°55.194 317.1 11.7 312 10.5
2005-08-24 06:41:14 51°14.307 2°55.176 316.3 11.8 311 10.6
2005-08-24 06:41:18 51°14.315 2°55.159 315.6 11.8 310 10.6
2005-08-24 06:41:23 51°14.326 2°55.138 314.6 11.8 310 10.7
2005-08-24 06:41:30 51°14.34 2°55.109 313.2 12 308 10.7
2005-08-24 06:41:34 51°14.347 2°55.091 311.7 12.1 306 10.7
2005-08-24 06:41:39 51°14.358 2°55.067 311.3 12.3 306 10.8
2005-08-24 06:41:44 51°14.368 2°55.044 310.9 12.2 305 10.7
2005-08-24 06:41:49 51°14.377 2°55.021 309.5 12.2 305 10.7
2005-08-24 06:41:54 51°14.386 2°55 308.4 12.2 305 10.6
2005-08-24 06:41:59 51°14.397 2°54.975 307.5 12.2 305 10.7
2005-08-24 06:42:03 51°14.405 2°54.957 308.4 12.6 305 10.9
2005-08-24 06:42:09 51°14.418 2°54.932 311.2 12.6 305 10.9
2005-08-24 06:42:14 51°14.429 2°54.914 315.2 12.6 313 11
2005-08-24 06:42:19 51°14.443 2°54.895 321 12.6 317 11
2005-08-24 06:42:24 51°14.458 2°54.877 325.3 12.6 321 11
2005-08-24 06:42:29 51°14.472 2°54.86 328.7 12.6 323 10.9
2005-08-24 06:42:34 51°14.485 2°54.846 330.1 12.7 323 10.8
2005-08-24 06:42:39 51°14.501 2°54.828 331 12.7 325 10.6
2005-08-24 06:42:44 51°14.515 2°54.811 331.5 12.7 325 10.6
2005-08-24 06:42:49 51°14.529 2°54.795 331.4 12.7 325 10.5
2005-08-24 06:42:54 51°14.542 2°54.78 330.9 12.7 325 10.5
2005-08-24 06:42:59 51°14.557 2°54.763 330.5 12.8 324 10.5
2005-08-24 06:43:03 51°14.569 2°54.748 330 12.8 324 10.4
2005-08-24 06:43:09 51°14.586 2°54.728 329.5 12.8 323 10.4
2005-08-24 06:43:14 51°14.6 2°54.711 329.2 12.8 323 10.3
2005-08-24 06:43:19 51°14.613 2°54.695 329.1 12.8 323 10.2
2005-08-24 06:43:24 51°14.629 2°54.677 329.1 12.8 323 10.2
2005-08-24 06:43:30 51°14.645 2°54.659 329.4 12.8 323 10.2
2005-08-24 06:43:34 51°14.658 2°54.644 329.6 12.8 323 10.2
2005-08-24 06:43:39 51°14.672 2°54.627 329.8 12.7 324 10.2
2005-08-24 06:43:43 51°14.682 2°54.616 329.7 12.7 324 10.1
2005-08-24 06:43:49 51°14.7 2°54.594 329.4 12.7 324 10.1
2005-08-24 06:43:54 51°14.715 2°54.578 329 12.8 323 10.1
2005-08-24 06:43:59 51°14.729 2°54.561 328.9 12.8 324 10.1
2005-08-24 06:44:04 51°14.744 2°54.544 328.8 13 324 10
2005-08-24 06:44:09 51°14.758 2°54.526 328.7 13 324 10
2005-08-24 06:44:14 51°14.774 2°54.51 328.8 13.2 325 9.9
2005-08-24 06:44:19 51°14.788 2°54.493 329.5 13.2 325 9.9
2005-08-24 06:44:23 51°14.801 2°54.48 329.9 13.2 325 9.8
2005-08-24 06:44:29 51°14.819 2°54.46 330.5 13.4 326 9.9
2005-08-24 06:44:34 51°14.834 2°54.445 330.8 13.4 326 9.7
2005-08-24 06:44:39 51°14.851 2°54.427 331.2 13.4 326 9.7
2005-08-24 06:44:43 51°14.863 2°54.414 331.3 13.6 326 9.6
2005-08-24 06:44:49 51°14.883 2°54.394 331.4 13.6 327 9.6
2005-08-24 06:44:54 51°14.897 2°54.38 331.6 13.6 327 9.5
2005-08-24 06:44:59 51°14.914 2°54.362 331.6 13.6 327 9.4
2005-08-24 06:45:04 51°14.93 2°54.346 331.7 13.6 327 9.5
2005-08-24 06:45:09 51°14.946 2°54.33 332 13.6 327 9.3
2005-08-24 06:45:14 51°14.96 2°54.315 332 13.5 328 9.2
2005-08-24 06:45:19 51°14.976 2°54.299 331.8 13.5 328 9.2
2005-08-24 06:45:23 51°14.99 2°54.285 332 13.5 328 9.1
2005-08-24 06:45:29 51°15.01 2°54.267 332.6 13.5 328 9.1
2005-08-24 06:45:34 51°15.026 2°54.251 333.2 13.5 329 9.1
2005-08-24 06:45:39 51°15.043 2°54.236 333.6 13.6 329 9.1
2005-08-24 06:45:43 51°15.056 2°54.225 334.2 13.6 329 9.1
2005-08-24 06:45:49 51°15.075 2°54.207 334.5 13.6 329 9.1
2005-08-24 06:45:54 51°15.092 2°54.192 334.7 13.6 329 9.2
2005-08-24 06:45:59 51°15.108 2°54.178 334.9 13.6 329 9.2
2005-08-24 06:46:04 51°15.125 2°54.163 334.8 13.7 331 9.3
2005-08-24 06:46:09 51°15.141 2°54.147 334.4 13.7 330 9.3
2005-08-24 06:46:14 51°15.157 2°54.132 333.9 13.7 329 9.4
2005-08-24 06:46:19 51°15.172 2°54.117 333.3 13.7 329 9.4
2005-08-24 06:46:23 51°15.186 2°54.103 332.8 13.6 328 9.4
2005-08-24 06:46:29 51°15.205 2°54.083 332.4 13.7 327 9.5
2005-08-24 06:46:34 51°15.221 2°54.066 332.3 13.7 327 9.6
2005-08-24 06:46:39 51°15.236 2°54.051 332 13.7 327 9.6
2005-08-24 06:46:44 51°15.253 2°54.034 332.3 13.6 327 9.7
2005-08-24 06:46:49 51°15.269 2°54.018 333.1 13.6 327 9.8
2005-08-24 06:46:54 51°15.284 2°54.004 333.3 13.6 327 9.9
2005-08-24 06:46:59 51°15.302 2°53.987 334.2 13.7 330 9.9
2005-08-24 06:47:03 51°15.314 2°53.977 334.5 13.7 330 10
2005-08-24 06:47:09 51°15.335 2°53.957 335.1 13.6 330 10.1
2005-08-24 06:47:14 51°15.351 2°53.942 335 13.6 329 10.1
2005-08-24 06:47:19 51°15.367 2°53.926 334.8 13.6 329 10.2
2005-08-24 06:47:24 51°15.383 2°53.91 334.6 13.6 329 10.4
2005-08-24 06:47:29 51°15.399 2°53.895 333.9 13.6 328 10.4
2005-08-24 06:47:34 51°15.415 2°53.879 334 13.5 328 10.5
2005-08-24 06:47:39 51°15.431 2°53.863 333.7 13.5 328 10.4
2005-08-24 06:47:42 51°15.439 2°53.855 333.8 13.5 328 10.5
2005-08-24 06:47:49 51°15.463 2°53.832 334 13.5 328 10.6
2005-08-24 06:47:54 51°15.477 2°53.818 334.3 13.5 328 10.7
2005-08-24 06:47:59 51°15.494 2°53.802 334.1 13.5 329 10.8
2005-08-24 06:48:04 51°15.509 2°53.786 334.1 13.5 328 10.8
2005-08-24 06:48:09 51°15.527 2°53.769 334 13.4 327 10.8
2005-08-24 06:48:14 51°15.541 2°53.754 333.9 13.4 327 10.9
2005-08-24 06:48:19 51°15.558 2°53.736 333.7 13.5 328 11
2005-08-24 06:48:22 51°15.566 2°53.729 333.6 13.5 328 11
2005-08-24 06:48:29 51°15.588 2°53.707 334 13.5 328 11.1
2005-08-24 06:48:34 51°15.605 2°53.692 334.5 13.5 329 11.1
2005-08-24 06:48:39 51°15.621 2°53.676 334.7 13.5 329 11.2
2005-08-24 06:48:44 51°15.639 2°53.659 334.8 13.5 329 11.3
2005-08-24 06:48:49 51°15.655 2°53.645 335 13.5 329 11.3
2005-08-24 06:48:53 51°15.668 2°53.634 336.1 13.5 332 11.3
2005-08-24 06:48:59 51°15.687 2°53.618 336.8 13.4 332 11.4
2005-08-24 06:49:03 51°15.701 2°53.606 337.6 13.4 332 11.4
2005-08-24 06:49:10 51°15.723 2°53.589 338.1 13.4 332 11.4
2005-08-24 06:49:14 51°15.736 2°53.578 338.3 13.4 333 11.5
2005-08-24 06:49:19 51°15.754 2°53.563 338.6 13.4 333 11.5
2005-08-24 06:49:24 51°15.77 2°53.55 338.3 13.4 333 11.6
2005-08-24 06:49:29 51°15.788 2°53.535 337.9 13.4 333 11.6
2005-08-24 06:49:34 51°15.803 2°53.523 338.1 13.5 333 11.6
2005-08-24 06:49:39 51°15.819 2°53.509 338.3 13.5 333 11.6
2005-08-24 06:49:44 51°15.838 2°53.495 338.8 13.5 333 11.7
2005-08-24 06:49:49 51°15.855 2°53.482 339.4 13.6 335 11.7
2005-08-24 06:49:54 51°15.872 2°53.469 340 13.6 335 11.7
2005-08-24 06:49:59 51°15.888 2°53.458 340.4 13.6 335 11.8
2005-08-24 06:50:03 51°15.903 2°53.446 340.4 13.6 335 11.8
2005-08-24 06:50:10 51°15.925 2°53.429 340.4 13.6 335 11.9
2005-08-24 06:50:14 51°15.941 2°53.418 340.4 13.7 335 11.9
2005-08-24 06:50:19 51°15.958 2°53.405 340.3 13.7 335 12
2005-08-24 06:50:24 51°15.974 2°53.393 340.2 13.7 335 12
2005-08-24 06:50:29 51°15.992 2°53.379 340.3 13.7 335 12
2005-08-24 06:50:34 51°16.008 2°53.367 340.6 13.7 335 12.1
2005-08-24 06:50:39 51°16.026 2°53.354 340.8 13.7 335 12.1
2005-08-24 06:50:44 51°16.044 2°53.341 340.8 13.7 335 12.1
2005-08-24 06:50:49 51°16.062 2°53.328 340.4 13.8 335 12.2
2005-08-24 06:50:54 51°16.079 2°53.315 340.3 13.7 335 12.2
2005-08-24 06:50:59 51°16.095 2°53.304 340.2 13.8 335 12.3
2005-08-24 06:51:03 51°16.111 2°53.293 340.4 13.8 335 12.3
2005-08-24 06:51:10 51°16.133 2°53.276 340.7 13.8 335 12.3
2005-08-24 06:51:14 51°16.147 2°53.266 340.8 13.8 336 12.3
2005-08-24 06:51:19 51°16.166 2°53.252 341.1 13.8 336 12.2
2005-08-24 06:51:24 51°16.184 2°53.24 341.1 13.8 336 12.3
2005-08-24 06:51:29 51°16.201 2°53.228 341.1 13.8 336 12.4
2005-08-24 06:51:34 51°16.217 2°53.217 341 13.8 336 12.3
2005-08-24 06:51:39 51°16.236 2°53.203 340.5 13.8 336 12.4
2005-08-24 06:51:44 51°16.252 2°53.191 340.4 13.8 336 12.5
2005-08-24 06:51:49 51°16.271 2°53.178 340.7 13.8 336 12.4
2005-08-24 06:51:54 51°16.287 2°53.167 341 13.8 336 12.4
2005-08-24 06:51:59 51°16.307 2°53.154 341 13.8 336 12.4
2005-08-24 06:52:02 51°16.315 2°53.148 341.1 13.8 336 12.5
2005-08-24 06:52:09 51°16.342 2°53.13 341.1 13.8 336 12.5
2005-08-24 06:52:14 51°16.357 2°53.118 340.8 13.8 336 12.5
2005-08-24 06:52:18 51°16.371 2°53.109 340.7 13.7 336 12.4
2005-08-24 06:52:24 51°16.394 2°53.093 340.8 13.7 336 12.4
2005-08-24 06:52:30 51°16.414 2°53.079 340.8 13.8 336 12.4
2005-08-24 06:52:34 51°16.428 2°53.07 340.7 13.8 336 12.4
2005-08-24 06:52:39 51°16.446 2°53.056 340.4 13.7 335 12.4
2005-08-24 06:52:44 51°16.464 2°53.042 339.7 13.7 335 12.2
2005-08-24 06:52:49 51°16.48 2°53.029 339.2 13.6 334 12.3
2005-08-24 06:52:54 51°16.496 2°53.017 339.2 13.6 334 12.2
2005-08-24 06:52:58 51°16.509 2°53.007 339 13.6 334 12.2
2005-08-24 06:53:04 51°16.532 2°52.99 339.5 13.6 334 12.1
2005-08-24 06:53:09 51°16.549 2°52.977 340.1 13.6 335 12.1
2005-08-24 06:53:14 51°16.564 2°52.966 340.4 13.6 335 11.9
2005-08-24 06:53:19 51°16.582 2°52.953 340.6 13.6 335 11.9
2005-08-24 06:53:24 51°16.6 2°52.94 340.9 13.6 335 11.8
2005-08-24 06:53:29 51°16.618 2°52.928 340.8 13.6 336 11.8
2005-08-24 06:53:34 51°16.635 2°52.916 340.8 13.6 336 11.7
2005-08-24 06:53:39 51°16.653 2°52.904 340.9 13.7 336 11.6
2005-08-24 06:53:43 51°16.666 2°52.894 340.7 13.7 336 11.5
2005-08-24 06:53:49 51°16.687 2°52.879 340.4 13.7 336 11.5
2005-08-24 06:53:54 51°16.702 2°52.867 340.4 13.7 336 11.4
2005-08-24 06:53:59 51°16.72 2°52.854 340.1 13.6 335 11.1
2005-08-24 06:54:04 51°16.738 2°52.841 340.2 13.6 336 11
2005-08-24 06:54:09 51°16.756 2°52.829 340.4 13.6 336 10.7
2005-08-24 06:54:14 51°16.771 2°52.818 340.5 13.7 336 10.5
2005-08-24 06:54:19 51°16.79 2°52.804 340.4 13.5 335 10.1
2005-08-24 06:54:22 51°16.798 2°52.798 340.2 13.5 335 10
2005-08-24 06:54:29 51°16.824 2°52.779 340 13.4 335 10
2005-08-24 06:54:34 51°16.839 2°52.768 340 13.5 335 9.9
2005-08-24 06:54:38 51°16.853 2°52.758 339.7 13.5 335 9.7
2005-08-24 06:54:44 51°16.876 2°52.74 339.7 13.5 335 9.7
2005-08-24 06:54:50 51°16.895 2°52.726 339.6 13.5 335 9.6
2005-08-24 06:54:54 51°16.909 2°52.716 339.5 13.5 335 9.7
2005-08-24 06:54:59 51°16.928 2°52.702 339.6 13.5 335 9.9
2005-08-24 06:55:02 51°16.937 2°52.696 340.1 13.5 335 10
2005-08-24 06:55:10 51°16.964 2°52.677 340.4 13.6 335 10.1
2005-08-24 06:55:14 51°16.979 2°52.666 340.4 13.6 336 10.3
2005-08-24 06:55:18 51°16.992 2°52.656 340.3 13.7 336 10.4
2005-08-24 06:55:23 51°17.009 2°52.643 339.9 13.6 335 10.4
2005-08-24 06:55:29 51°17.03 2°52.628 340 13.6 335 10.4
2005-08-24 06:55:34 51°17.045 2°52.616 339.8 13.6 335 10.3
2005-08-24 06:55:39 51°17.062 2°52.603 339.8 13.6 335 10.1
2005-08-24 06:55:43 51°17.077 2°52.592 339.9 13.6 335 10
2005-08-24 06:55:49 51°17.098 2°52.577 340.4 13.6 335 9.9
2005-08-24 06:55:54 51°17.114 2°52.566 340.1 13.6 335 9.9
2005-08-24 06:55:59 51°17.132 2°52.552 340.1 13.6 335 10
2005-08-24 06:56:04 51°17.148 2°52.541 339.8 13.6 335 10
2005-08-24 06:56:09 51°17.166 2°52.526 340 13.6 335 10.2
2005-08-24 06:56:14 51°17.181 2°52.515 340.4 13.6 335 10.2
2005-08-24 06:56:19 51°17.2 2°52.5 339.7 13.6 335 10.2
2005-08-24 06:56:22 51°17.209 2°52.494 339.7 13.6 335 10.3
2005-08-24 06:56:29 51°17.234 2°52.473 339.4 13.6 333 10.4
2005-08-24 06:56:34 51°17.249 2°52.461 339.7 13.6 333 10.4
2005-08-24 06:56:39 51°17.267 2°52.448 340.1 13.6 333 10.5
2005-08-24 06:56:44 51°17.285 2°52.434 340.1 13.6 334 10.6
2005-08-24 06:56:49 51°17.303 2°52.421 340.3 13.6 334 10.5
2005-08-24 06:56:54 51°17.32 2°52.408 340.1 13.7 335 10.6
2005-08-24 06:56:59 51°17.335 2°52.395 340.2 13.6 334 10.6
2005-08-24 06:57:03 51°17.35 2°52.383 340.1 13.6 334 10.6
2005-08-24 06:57:09 51°17.37 2°52.365 339.5 13.6 334 10.7
2005-08-24 06:57:14 51°17.385 2°52.347 336.2 13.5 327 10.7
2005-08-24 06:57:19 51°17.397 2°52.329 331.1 13.5 327 10.7
2005-08-24 06:57:24 51°17.411 2°52.309 325.6 13.4 317 10.8
2005-08-24 06:57:29 51°17.424 2°52.286 321.9 13.4 316 10.7
2005-08-24 06:57:34 51°17.437 2°52.264 319.3 13.4 316 10.8
2005-08-24 06:57:39 51°17.449 2°52.242 317.1 13.4 311 10.9
2005-08-24 06:57:44 51°17.461 2°52.218 315.9 13.5 311 10.7
2005-08-24 06:57:49 51°17.473 2°52.195 315 13.5 309 10.9
2005-08-24 06:57:54 51°17.484 2°52.171 313.6 13.5 309 10.8
2005-08-24 06:57:59 51°17.495 2°52.147 311.9 13.5 309 10.9
2005-08-24 06:58:04 51°17.506 2°52.122 311.1 13.6 306 10.9
2005-08-24 06:58:09 51°17.516 2°52.098 310.2 13.6 304 10.8
2005-08-24 06:58:14 51°17.526 2°52.076 309.3 13.6 304 10.9
2005-08-24 06:58:19 51°17.536 2°52.049 308.6 13.6 304 10.9
2005-08-24 06:58:23 51°17.546 2°52.028 307.7 13.6 303 10.8
2005-08-24 06:58:29 51°17.558 2°51.997 307.3 13.6 302 10.8
2005-08-24 06:58:34 51°17.568 2°51.972 306.7 13.6 303 11
2005-08-24 06:58:38 51°17.575 2°51.951 306.2 13.6 302 10.8
2005-08-24 06:58:43 51°17.585 2°51.925 305.5 13.6 301 10.8
2005-08-24 06:58:49 51°17.597 2°51.894 305.2 13.6 301 10.8
2005-08-24 06:58:54 51°17.606 2°51.867 305.3 13.6 301 10.5
2005-08-24 06:58:59 51°17.616 2°51.842 305.1 13.6 300 10.6
2005-08-24 06:59:03 51°17.623 2°51.821 304.4 13.6 300 10.5
2005-08-24 06:59:09 51°17.635 2°51.79 303.8 13.6 300 10.6
2005-08-24 06:59:14 51°17.643 2°51.766 303.6 13.6 299 10.5
2005-08-24 06:59:18 51°17.651 2°51.742 303 13.6 298 10.5
2005-08-24 06:59:24 51°17.661 2°51.71 302.7 13.6 298 10.4
2005-08-24 06:59:29 51°17.67 2°51.684 302.5 13.6 298 10.3
2005-08-24 06:59:34 51°17.679 2°51.657 302.3 13.6 298 10.3
2005-08-24 06:59:39 51°17.688 2°51.631 302 13.6 298 10.3
2005-08-24 06:59:43 51°17.695 2°51.609 302.5 13.6 298 10.2
2005-08-24 06:59:49 51°17.706 2°51.578 302.8 13.6 299 10.2
2005-08-24 06:59:54 51°17.715 2°51.554 303.3 13.6 299 10.3
2005-08-24 06:59:59 51°17.724 2°51.527 303.1 13.6 299 10.2
2005-08-24 07:00:04 51°17.734 2°51.498 303.1 13.6 299 10.3
2005-08-24 07:00:09 51°17.742 2°51.471 302.9 13.6 299 10.3
2005-08-24 07:00:14 51°17.752 2°51.445 302.6 13.7 298 10.4
2005-08-24 07:00:19 51°17.761 2°51.418 302.3 13.7 298 10.4
2005-08-24 07:00:24 51°17.77 2°51.392 302.5 13.7 298 10.5
2005-08-24 07:00:29 51°17.779 2°51.365 302.7 13.7 299 10.5
2005-08-24 07:00:34 51°17.788 2°51.338 302.7 13.7 299 10.5
2005-08-24 07:00:39 51°17.796 2°51.314 302.7 13.7 299 10.7
2005-08-24 07:00:44 51°17.806 2°51.285 302.7 13.7 298 10.6
2005-08-24 07:00:50 51°17.816 2°51.256 302.8 13.7 299 10.7
2005-08-24 07:00:54 51°17.825 2°51.232 302.4 13.7 298 10.7
2005-08-24 07:00:58 51°17.832 2°51.21 302.2 13.7 299 10.9
2005-08-24 07:01:04 51°17.842 2°51.178 302.6 13.7 299 10.9
2005-08-24 07:01:09 51°17.852 2°51.151 302.7 13.8 299 11
2005-08-24 07:01:14 51°17.861 2°51.124 302.6 13.8 298 11.2
2005-08-24 07:01:18 51°17.867 2°51.105 302.2 13.8 298 11.3
2005-08-24 07:01:24 51°17.879 2°51.071 302 13.8 298 11.4
2005-08-24 07:01:30 51°17.889 2°51.042 302 13.8 298 11.6
2005-08-24 07:01:34 51°17.896 2°51.017 302.2 13.8 298 11.8
2005-08-24 07:01:38 51°17.904 2°50.996 302.1 13.7 298 11.9
2005-08-24 07:01:42 51°17.91 2°50.977 302 13.7 298 12
2005-08-24 07:01:50 51°17.924 2°50.934 301.9 13.7 298 12.2
2005-08-24 07:01:54 51°17.931 2°50.913 301.8 13.7 298 12.3
2005-08-24 07:01:59 51°17.941 2°50.883 301.7 13.7 297 12.4
2005-08-24 07:02:02 51°17.946 2°50.867 301.3 13.7 298 12.4
2005-08-24 07:02:09 51°17.958 2°50.829 300.6 13.7 296 12.5
2005-08-24 07:02:14 51°17.966 2°50.804 299.7 13.7 296 12.5
2005-08-24 07:02:19 51°17.974 2°50.777 299 13.7 296 12.6
2005-08-24 07:02:23 51°17.981 2°50.753 299 13.7 296 12.8
2005-08-24 07:02:29 51°17.991 2°50.72 298.6 13.6 295 12.9
2005-08-24 07:02:34 51°17.998 2°50.692 298.4 13.7 295 12.9
2005-08-24 07:02:39 51°18.006 2°50.665 298.2 13.6 295 13
2005-08-24 07:02:43 51°18.013 2°50.643 298.3 13.6 295 13
2005-08-24 07:02:49 51°18.023 2°50.61 298.5 13.6 295 13.1
2005-08-24 07:02:54 51°18.031 2°50.583 298.8 13.7 295 13.1
2005-08-24 07:02:59 51°18.039 2°50.556 298.7 13.6 295 13.3
2005-08-24 07:03:04 51°18.047 2°50.528 298.8 13.6 295 13.2
2005-08-24 07:03:09 51°18.054 2°50.501 298.7 13.6 294 13.4
2005-08-24 07:03:14 51°18.062 2°50.473 298.4 13.6 294 13.3
2005-08-24 07:03:19 51°18.069 2°50.448 298.3 13.6 294 13.5
2005-08-24 07:03:24 51°18.078 2°50.419 298.3 13.6 294 13.6
2005-08-24 07:03:29 51°18.086 2°50.391 298.5 13.6 295 13.7
2005-08-24 07:03:34 51°18.094 2°50.364 298.3 13.6 294 13.8
2005-08-24 07:03:39 51°18.102 2°50.336 298.4 13.7 295 13.9
2005-08-24 07:03:43 51°18.108 2°50.315 298.4 13.6 295 13.9
2005-08-24 07:03:49 51°18.118 2°50.282 298.4 13.6 295 14
2005-08-24 07:03:54 51°18.126 2°50.254 298.8 13.6 295 14.1
2005-08-24 07:03:59 51°18.134 2°50.227 298.9 13.7 295 14.1
2005-08-24 07:04:04 51°18.142 2°50.2 299 13.7 295 14.1
2005-08-24 07:04:09 51°18.15 2°50.173 298.6 13.6 295 14.2
2005-08-24 07:04:14 51°18.158 2°50.145 298.5 13.6 295 14.2
2005-08-24 07:04:19 51°18.166 2°50.118 298.4 13.6 295 14.3
2005-08-24 07:04:24 51°18.173 2°50.091 298.3 13.6 295 14.3
2005-08-24 07:04:29 51°18.18 2°50.066 298.3 13.6 294 14.3
2005-08-24 07:04:34 51°18.189 2°50.036 298.5 13.6 295 14.3
2005-08-24 07:04:39 51°18.197 2°50.009 298.4 13.6 295 14.3
2005-08-24 07:04:42 51°18.201 2°49.995 298.6 13.6 295 14.3
2005-08-24 07:04:49 51°18.213 2°49.954 298.9 13.6 295 14.3
2005-08-24 07:04:54 51°18.22 2°49.93 299 13.6 296 14.2
2005-08-24 07:04:59 51°18.23 2°49.899 299 13.6 295 14.2
2005-08-24 07:05:04 51°18.238 2°49.872 299 13.7 295 14.2
2005-08-24 07:05:09 51°18.245 2°49.845 298.7 13.6 295 14.2
2005-08-24 07:05:14 51°18.252 2°49.82 298.3 13.6 294 14.1
2005-08-24 07:05:19 51°18.26 2°49.792 298.4 13.6 294 13.9
2005-08-24 07:05:24 51°18.269 2°49.763 298.3 13.6 295 14
2005-08-24 07:05:29 51°18.277 2°49.736 298.8 13.6 295 13.8
2005-08-24 07:05:34 51°18.285 2°49.708 299.3 13.6 295 13.8
2005-08-24 07:05:38 51°18.291 2°49.686 299.4 13.6 295 13.7
2005-08-24 07:05:44 51°18.301 2°49.654 299.1 13.7 295 13.5
2005-08-24 07:05:50 51°18.31 2°49.624 299.2 13.7 295 13.2
2005-08-24 07:05:54 51°18.317 2°49.599 299 13.7 295 13.3
2005-08-24 07:05:59 51°18.325 2°49.574 298.6 13.7 295 13.2
2005-08-24 07:06:03 51°18.332 2°49.55 298.6 13.7 295 13
2005-08-24 07:06:09 51°18.341 2°49.517 298.8 13.6 295 12.5
2005-08-24 07:06:14 51°18.348 2°49.492 298.5 13.6 295 12.3
2005-08-24 07:06:19 51°18.356 2°49.465 298.4 13.6 295 11.9
2005-08-24 07:06:23 51°18.363 2°49.441 298.6 13.6 295 11.8
2005-08-24 07:06:29 51°18.372 2°49.408 299.1 13.6 295 11.5
2005-08-24 07:06:34 51°18.381 2°49.381 299.1 13.6 295 11.8
2005-08-24 07:06:38 51°18.387 2°49.359 299.2 13.6 295 11.8
2005-08-24 07:06:43 51°18.395 2°49.332 298.9 13.6 295 11.6
2005-08-24 07:06:49 51°18.405 2°49.299 299 13.6 295 11.4
2005-08-24 07:06:54 51°18.413 2°49.272 298.8 13.6 295 11.3
2005-08-24 07:06:59 51°18.421 2°49.245 299.1 13.6 296 10.9
2005-08-24 07:07:03 51°18.428 2°49.223 299 13.6 295 10.8
2005-08-24 07:07:09 51°18.437 2°49.19 299.1 13.5 295 10.6
2005-08-24 07:07:14 51°18.444 2°49.166 299.5 13.5 296 10.6
2005-08-24 07:07:18 51°18.451 2°49.141 299.4 13.5 295 10.6
2005-08-24 07:07:22 51°18.458 2°49.119 299.4 13.5 295 10.6
2005-08-24 07:07:29 51°18.469 2°49.081 299.3 13.6 295 10.8
2005-08-24 07:07:34 51°18.476 2°49.056 299.3 13.6 295 11
2005-08-24 07:07:39 51°18.484 2°49.028 299.1 13.6 295 11.1
2005-08-24 07:07:44 51°18.493 2°48.999 299.5 13.7 295 10.9
2005-08-24 07:07:50 51°18.502 2°48.969 299.5 13.7 296 11.1
2005-08-24 07:07:54 51°18.51 2°48.944 299.6 13.7 295 10.9
2005-08-24 07:07:59 51°18.518 2°48.917 299.7 13.7 295 10.8
2005-08-24 07:08:04 51°18.526 2°48.889 299.7 13.7 295 10.4
2005-08-24 07:08:10 51°18.534 2°48.859 299.3 13.7 295 9.7
2005-08-24 07:08:14 51°18.541 2°48.834 299 13.6 294 10.7
2005-08-24 07:08:19 51°18.548 2°48.809 298.1 13.6 294 11.1
2005-08-24 07:08:23 51°18.555 2°48.786 298.1 13.7 294 11.2
2005-08-24 07:08:29 51°18.565 2°48.751 298.2 13.8 294 11.3
2005-08-24 07:08:34 51°18.572 2°48.723 298.3 13.8 294 11.2
2005-08-24 07:08:38 51°18.578 2°48.703 298.4 13.8 294 11.2
2005-08-24 07:08:44 51°18.587 2°48.669 298.6 13.7 295 11
2005-08-24 07:08:50 51°18.597 2°48.637 298.7 13.7 294 11
2005-08-24 07:08:54 51°18.603 2°48.615 298.9 13.7 295 11.1
2005-08-24 07:08:59 51°18.612 2°48.585 298.6 13.7 295 11
2005-08-24 07:09:02 51°18.617 2°48.568 298.6 13.7 295 11.9
2005-08-24 07:09:09 51°18.628 2°48.529 298.5 13.8 294 12.3
2005-08-24 07:09:14 51°18.636 2°48.501 298.3 13.8 294 12.4
2005-08-24 07:09:18 51°18.641 2°48.481 298 13.8 294 12.8
2005-08-24 07:09:24 51°18.651 2°48.445 298.2 13.8 294 12.9
2005-08-24 07:09:29 51°18.659 2°48.417 298.2 13.8 294 12.9
2005-08-24 07:09:34 51°18.667 2°48.389 298.3 13.8 294 12.9
2005-08-24 07:09:38 51°18.673 2°48.367 298.5 13.8 294 13.1
2005-08-24 07:09:42 51°18.679 2°48.348 298.7 13.8 294 13.2
2005-08-24 07:09:49 51°18.691 2°48.307 298.9 13.7 295 13.6
2005-08-24 07:09:54 51°18.698 2°48.282 298.6 13.7 294 13.9
2005-08-24 07:09:59 51°18.706 2°48.251 298.3 13.7 294 14.1
2005-08-24 07:10:04 51°18.713 2°48.223 297.9 13.7 293 14.1
2005-08-24 07:10:09 51°18.721 2°48.195 297.8 13.7 294 14.3
2005-08-24 07:10:14 51°18.728 2°48.17 297.8 13.7 294 14.4
2005-08-24 07:10:19 51°18.736 2°48.14 298 13.7 294 14.4
2005-08-24 07:10:24 51°18.744 2°48.112 298.1 13.7 294 14.6
2005-08-24 07:10:30 51°18.752 2°48.081 298.7 13.7 294 14.9
2005-08-24 07:10:34 51°18.76 2°48.057 298.8 13.7 294 15.1
2005-08-24 07:10:38 51°18.766 2°48.035 299.1 13.7 294 15.2
2005-08-24 07:10:42 51°18.772 2°48.015 298.9 13.7 294 15.4
2005-08-24 07:10:50 51°18.784 2°47.971 298.3 13.7 294 15.7
2005-08-24 07:10:54 51°18.79 2°47.948 298.3 13.7 294 15.9
2005-08-24 07:10:59 51°18.799 2°47.918 298.5 13.7 294 16
2005-08-24 07:11:04 51°18.807 2°47.891 298.6 13.7 294 16.2
2005-08-24 07:11:09 51°18.815 2°47.863 298.5 13.7 294 16.4
2005-08-24 07:11:14 51°18.822 2°47.836 298.6 13.7 294 16.5
2005-08-24 07:11:19 51°18.829 2°47.81 298.3 13.7 294 16.6
2005-08-24 07:11:23 51°18.837 2°47.786 298.4 13.7 294 16.9
2005-08-24 07:11:30 51°18.847 2°47.75 298.6 13.7 295 17.1
2005-08-24 07:11:34 51°18.854 2°47.726 298.6 13.7 295 17.5
2005-08-24 07:11:39 51°18.862 2°47.7 298.6 13.6 295 17.7
2005-08-24 07:11:44 51°18.87 2°47.67 298.6 13.6 295 18
2005-08-24 07:11:49 51°18.878 2°47.643 298.6 13.6 294 18.4
2005-08-24 07:11:54 51°18.885 2°47.618 298.4 13.6 293 18.6
2005-08-24 07:11:59 51°18.894 2°47.588 298.2 13.6 294 18.8
2005-08-24 07:12:04 51°18.901 2°47.56 298.3 13.6 295 18.9
2005-08-24 07:12:09 51°18.91 2°47.533 298.2 13.7 295 18.9
2005-08-24 07:12:14 51°18.917 2°47.508 298.3 13.6 295 19
2005-08-24 07:12:19 51°18.925 2°47.481 298.3 13.7 296 19
2005-08-24 07:12:24 51°18.933 2°47.451 298.5 13.6 295 18.7
2005-08-24 07:12:30 51°18.942 2°47.421 298.3 13.6 295 18.8
2005-08-24 07:12:34 51°18.949 2°47.396 298.2 13.6 295 19
2005-08-24 07:12:38 51°18.955 2°47.374 297.7 13.6 295 19.3
2005-08-24 07:12:44 51°18.965 2°47.341 297.5 13.6 295 19.3
2005-08-24 07:12:50 51°18.973 2°47.311 297.5 13.6 295 19.4
2005-08-24 07:12:54 51°18.981 2°47.286 297.6 13.6 295 19.6
2005-08-24 07:12:58 51°18.987 2°47.265 297.9 13.6 295 19.9
2005-08-24 07:13:02 51°18.993 2°47.243 297.9 13.6 295 20
2005-08-24 07:13:10 51°19.005 2°47.202 298 13.6 295 20.2
2005-08-24 07:13:14 51°19.011 2°47.18 298.3 13.6 295 20.3
2005-08-24 07:13:19 51°19.02 2°47.15 298.5 13.6 296 20.5
2005-08-24 07:13:22 51°19.025 2°47.134 298.7 13.6 296 20.6
2005-08-24 07:13:30 51°19.037 2°47.093 298.5 13.6 295 20.8
2005-08-24 07:13:34 51°19.043 2°47.071 298.3 13.6 295 20.9
2005-08-24 07:13:38 51°19.05 2°47.047 298.2 13.5 294 20.9
2005-08-24 07:13:44 51°19.059 2°47.014 297.8 13.6 294 21
2005-08-24 07:13:49 51°19.067 2°46.986 297.8 13.6 295 21.1
2005-08-24 07:13:54 51°19.074 2°46.962 297.9 13.6 295 21.1
2005-08-24 07:13:58 51°19.081 2°46.94 298.3 13.6 295 21.2
2005-08-24 07:14:04 51°19.091 2°46.904 298.2 13.6 295 21.2
2005-08-24 07:14:09 51°19.099 2°46.877 297.8 13.7 295 21.3
2005-08-24 07:14:14 51°19.106 2°46.852 297.5 13.7 295 21.4
2005-08-24 07:14:18 51°19.112 2°46.83 297.9 13.7 295 21.3
2005-08-24 07:14:24 51°19.122 2°46.794 297.9 13.7 295 21.3
2005-08-24 07:14:29 51°19.13 2°46.767 297.6 13.7 295 21.2
2005-08-24 07:14:34 51°19.138 2°46.742 297.8 13.7 296 21.3
2005-08-24 07:14:39 51°19.146 2°46.712 298.2 13.7 295 21.2
2005-08-24 07:14:44 51°19.155 2°46.684 298.3 13.8 295 21.3
2005-08-24 07:14:49 51°19.163 2°46.657 298.4 13.8 296 21.2
2005-08-24 07:14:54 51°19.17 2°46.632 298.4 13.8 296 21.4
2005-08-24 07:14:59 51°19.179 2°46.604 298.3 13.8 296 21.4
2005-08-24 07:15:04 51°19.187 2°46.574 298.6 13.8 296 21.5
2005-08-24 07:15:09 51°19.195 2°46.547 298.5 13.8 295 21.5
2005-08-24 07:15:14 51°19.204 2°46.519 298.3 13.8 295 21.6
2005-08-24 07:15:19 51°19.212 2°46.491 297.8 13.8 295 21.5
2005-08-24 07:15:23 51°19.218 2°46.469 297.6 13.8 295 20.9
2005-08-24 07:15:29 51°19.228 2°46.436 297.8 13.8 295 21.1
2005-08-24 07:15:34 51°19.236 2°46.408 298.1 13.9 295 21.1
2005-08-24 07:15:39 51°19.244 2°46.383 298.3 13.9 295 21